Time;durP1;ratioP1;P1;durP2;ratioP2;P2;SDS_P1;SDS_P2;PMS_P1;PMS_P2;Temp;Humidity;BMP_temperature;BMP_pressure;BME280_temperature;BME280_humidity;BME280_pressure;Samples;Min_cycle;Max_cycle;Signal;HPM_P1;HPM_P2
2023/11/03 08:31:43;;;;;;;4.30;1.55;;;;;;;5.52;97.47;94066.59;2100769;27;20570;-61
2023/11/03 08:34:38;;;;;;;10.65;1.45;;;;;;;5.58;96.65;94067.97;2091676;27;20578;-61
2023/11/03 08:37:24;;;;;;;8.70;1.52;;;;;;;5.66;95.92;94074.31;2091248;27;20586;-61
2023/11/03 08:40:21;;;;;;;3.95;1.40;;;;;;;5.66;95.07;94068.28;2092743;27;21105;-61
2023/11/03 08:41:25;;;;;;;8.10;1.60;;;;;;;5.61;94.69;94070.34;2090064;28;20228;-61
2023/11/03 08:44:04;;;;;;;6.10;1.60;;;;;;;5.69;94.93;94083.63;2084214;28;20599;-61
2023/11/03 08:46:47;;;;;;;8.90;2.17;;;;;;;5.74;94.21;94078.97;2100233;27;20550;-61
2023/11/03 08:47:50;;;;;;;4.82;1.17;;;;;;;5.72;94.40;94076.47;2089589;28;20240;-61
2023/11/03 08:50:14;;;;;;;9.73;1.63;;;;;;;5.83;94.60;94074.94;2083108;28;20584;-61
2023/11/03 08:52:38;;;;;;;5.13;1.20;;;;;;;5.93;94.10;94086.34;2093722;27;20576;-61
2023/11/03 08:54:49;;;;;;;7.82;1.25;;;;;;;5.86;93.53;94090.28;2111257;27;20600;-61
2023/11/03 08:56:59;;;;;;;6.78;1.45;;;;;;;5.96;93.00;94093.91;2075735;28;20581;-61
2023/11/03 08:59:09;;;;;;;9.43;1.30;;;;;;;6.02;93.27;94103.88;2099878;27;20570;-61
2023/11/03 09:01:20;;;;;;;3.15;0.90;;;;;;;6.05;92.60;94101.06;2092825;27;20574;-61
2023/11/03 09:03:31;;;;;;;5.05;1.33;;;;;;;6.20;93.19;94106.19;2082863;28;20785;-61
2023/11/03 09:05:43;;;;;;;18.45;5.38;;;;;;;6.31;92.88;94106.28;2085241;27;20577;-62
2023/11/03 09:07:54;;;;;;;11.77;4.45;;;;;;;6.34;91.85;94111.22;2084834;27;20570;-62
2023/11/03 09:31:00;;;;;;;2.10;1.63;;;;;;;6.43;90.04;94127.09;2108005;27;20573;-72
2023/11/03 09:33:20;;;;;;;2.03;0.60;;;;;;;6.48;90.07;94122.44;2091430;28;20570;-72
2023/11/03 09:35:40;;;;;;;3.70;0.90;;;;;;;6.65;89.77;94126.44;2091020;28;20578;-72
2023/11/03 09:38:16;;;;;;;2.42;0.80;;;;;;;6.57;89.93;94129.56;2092767;27;21013;-72
2023/11/03 09:40:42;;;;;;;2.45;0.85;;;;;;;6.53;88.78;94128.13;2082387;28;20565;-72
2023/11/03 09:42:59;;;;;;;4.45;0.80;;;;;;;6.59;89.27;94129.47;2084166;27;20572;-72
2023/11/03 09:45:19;;;;;;;4.63;0.80;;;;;;;6.66;89.01;94118.56;2091218;27;20588;-72
2023/11/03 09:47:37;;;;;;;3.55;0.80;;;;;;;6.54;87.49;94120.25;2085160;28;21303;-72
2023/11/03 09:50:12;;;;;;;3.00;1.00;;;;;;;6.68;88.88;94124.47;2103007;27;20567;-72
2023/11/03 09:52:38;;;;;;;2.17;1.00;;;;;;;6.92;89.05;94115.91;2082413;28;20635;-72
2023/11/03 09:53:43;;;;;;;8.32;0.93;;;;;;;7.00;87.84;94123.16;2073616;28;20201;-72
2023/11/03 09:55:43;;;;;;;2.70;1.10;;;;;;;7.05;87.53;94125.41;2083884;28;20579;-72
2023/11/03 09:57:43;;;;;;;1.83;0.90;;;;;;;7.17;87.05;94122.78;2082202;27;20584;-72
2023/11/03 09:58:46;;;;;;;2.22;0.88;;;;;;;7.15;86.56;94119.47;2081729;28;20587;-72
2023/11/03 09:59:48;;;;;;;2.08;1.00;;;;;;;6.98;85.46;94099.06;2078754;28;20194;-73
2023/11/03 10:00:49;;;;;;;4.90;1.00;;;;;;;7.05;85.80;94109.84;2077748;28;20195;-72
2023/11/03 10:01:53;;;;;;;4.63;1.63;;;;;;;7.22;86.07;94106.88;2081848;28;20228;-72
2023/11/03 10:02:55;;;;;;;2.65;0.95;;;;;;;7.30;84.69;94111.50;2078249;28;20225;-73
2023/11/03 10:03:57;;;;;;;2.35;0.95;;;;;;;7.51;84.40;94112.56;2080947;28;20189;-72
2023/11/03 10:05:00;;;;;;;2.15;0.98;;;;;;;7.55;84.31;94117.53;2078229;28;20843;-72
2023/11/03 10:06:03;;;;;;;3.65;0.80;;;;;;;7.49;83.98;94111.84;2077584;28;20201;-72
2023/11/03 10:07:06;;;;;;;2.55;0.80;;;;;;;7.54;83.55;94115.88;2080715;28;21088;-72
2023/11/03 10:08:18;;;;;;;4.57;0.80;;;;;;;7.55;83.53;94107.97;2080487;28;20339;-72
2023/11/03 10:09:19;;;;;;;6.90;0.80;;;;;;;7.42;82.89;94105.44;2079042;28;20195;-73
2023/11/03 10:10:21;;;;;;;3.10;0.70;;;;;;;7.46;83.17;94103.44;2078970;28;20644;-72
2023/11/03 10:11:22;;;;;;;3.55;0.70;;;;;;;7.61;82.85;94107.53;2079719;28;20216;-73
2023/11/03 10:12:25;;;;;;;1.40;0.70;;;;;;;7.70;83.41;94110.41;2077828;28;20200;-72
2023/11/03 10:13:27;;;;;;;1.90;0.70;;;;;;;7.67;83.25;94101.06;2081485;28;20437;-73
2023/11/03 10:14:29;;;;;;;1.35;0.70;;;;;;;7.81;82.89;94110.44;2074287;28;20213;-73
2023/11/03 10:15:32;;;;;;;1.73;0.60;;;;;;;7.89;82.73;94102.88;2082099;28;20284;-73
2023/11/03 10:16:33;;;;;;;2.75;0.70;;;;;;;7.91;82.30;94105.38;2080354;28;20285;-73
2023/11/03 10:17:35;;;;;;;8.52;0.80;;;;;;;8.11;82.63;94107.31;2082054;28;20213;-73
2023/11/03 10:18:37;;;;;;;3.47;0.70;;;;;;;8.07;81.91;94100.66;2081828;28;20205;-73
2023/11/03 10:19:40;;;;;;;2.35;0.82;;;;;;;7.82;82.19;94102.53;2080816;28;20245;-72
2023/11/03 10:20:41;;;;;;;2.80;0.80;;;;;;;7.87;82.88;94106.53;2079046;28;20204;-72
2023/11/03 10:21:45;;;;;;;6.15;0.95;;;;;;;7.95;82.35;94107.63;2079697;28;20283;-73
2023/11/03 10:22:47;;;;;;;2.90;0.90;;;;;;;8.08;82.62;94102.34;2079484;28;20213;-72
2023/11/03 10:23:49;;;;;;;6.28;0.85;;;;;;;8.10;81.14;94105.66;2078676;28;20223;-73
2023/11/03 10:24:51;;;;;;;2.45;0.80;;;;;;;7.96;80.95;94104.09;2078255;28;20244;-72
2023/11/03 10:25:52;;;;;;;1.98;0.60;;;;;;;7.98;82.10;94096.19;2079102;28;20205;-73
2023/11/03 10:26:54;;;;;;;4.15;0.75;;;;;;;7.89;82.57;94102.88;2080586;28;20225;-73
2023/11/03 10:27:56;;;;;;;1.85;0.70;;;;;;;7.77;82.33;94098.59;2072712;28;20213;-73
2023/11/03 10:28:59;;;;;;;4.72;0.70;;;;;;;7.73;83.03;94097.16;2080310;28;20203;-73
2023/11/03 10:30:05;;;;;;;3.17;0.70;;;;;;;7.80;82.45;94100.97;2079427;28;20285;-72
2023/11/03 10:31:06;;;;;;;4.03;1.05;;;;;;;7.84;82.60;94103.22;2080680;28;20600;-73
2023/11/03 10:32:09;;;;;;;5.63;1.30;;;;;;;7.65;82.31;94095.16;2079628;28;20231;-73
2023/11/03 10:33:12;;;;;;;4.70;0.80;;;;;;;7.65;82.94;94097.75;2076979;28;20273;-72
2023/11/03 10:34:20;;;;;;;3.30;0.85;;;;;;;7.73;82.71;94094.56;2077536;28;20198;-73
2023/11/03 10:35:24;;;;;;;4.70;0.90;;;;;;;7.84;82.94;94099.81;2079076;28;20196;-73
2023/11/03 10:36:26;;;;;;;3.95;0.70;;;;;;;7.70;82.10;94098.22;2078869;28;20822;-72
2023/11/03 10:37:29;;;;;;;5.05;0.90;;;;;;;7.62;83.13;94092.78;2078827;28;20640;-72
2023/11/03 10:38:31;;;;;;;2.42;0.90;;;;;;;7.61;82.67;94089.34;2081260;28;20196;-73
2023/11/03 10:39:32;;;;;;;2.75;0.60;;;;;;;7.51;82.64;94094.38;2082453;28;20193;-73
2023/11/03 10:40:34;;;;;;;6.93;1.15;;;;;;;7.42;82.40;94089.88;2080662;28;20298;-72
2023/11/03 10:41:37;;;;;;;5.03;0.85;;;;;;;7.40;83.07;94080.53;2080103;28;20204;-73
2023/11/03 10:42:40;;;;;;;1.63;0.75;;;;;;;7.29;82.97;94089.94;2080717;28;20564;-72
2023/11/03 10:43:46;;;;;;;3.20;0.82;;;;;;;7.38;83.21;94091.03;2081111;28;20201;-72
2023/11/03 10:44:49;;;;;;;1.80;0.90;;;;;;;7.45;83.98;94087.06;2080946;28;20882;-72
2023/11/03 10:46:10;;;;;;;1.65;0.80;;;;;;;7.43;82.68;94088.94;2077287;28;20233;-72
2023/11/03 10:47:21;;;;;;;2.33;0.73;;;;;;;7.38;82.34;94092.78;2081525;28;20216;-72
2023/11/03 10:48:31;;;;;;;2.33;0.65;;;;;;;7.31;82.70;94082.03;2077133;28;20645;-73
2023/11/03 10:49:36;;;;;;;2.42;0.70;;;;;;;7.31;82.40;94082.88;2078518;28;20610;-72
2023/11/03 10:50:46;;;;;;;6.18;0.85;;;;;;;7.27;81.75;94083.19;2078075;28;20241;-73
2023/11/03 10:52:21;;;;;;;2.33;0.60;;;;;;;7.13;80.89;94077.22;2080384;28;20209;-72
2023/11/03 10:53:30;;;;;;;5.50;0.85;;;;;;;7.08;81.64;94081.09;2075214;28;20219;-72
2023/11/03 10:54:51;;;;;;;5.00;0.80;;;;;;;7.02;82.09;94079.75;2076722;28;20201;-72
2023/11/03 10:55:59;;;;;;;7.50;0.65;;;;;;;7.15;82.43;94075.34;2079029;28;20192;-72
2023/11/03 10:57:16;;;;;;;1.77;0.60;;;;;;;7.13;82.44;94077.22;2081354;28;20320;-73
2023/11/03 10:58:39;;;;;;;3.85;1.00;;;;;;;7.22;82.50;94072.31;2080799;28;20303;-74
2023/11/03 10:59:48;;;;;;;2.67;0.88;;;;;;;7.32;82.38;94073.31;2080735;28;20458;-73
2023/11/03 11:01:01;;;;;;;1.80;0.90;;;;;;;7.47;82.29;94072.19;2082732;28;20730;-73
2023/11/03 11:02:27;;;;;;;3.38;0.77;;;;;;;7.45;81.90;94074.06;2079680;28;20679;-73
2023/11/03 11:03:53;;;;;;;1.30;0.60;;;;;;;7.47;81.38;94073.97;2077055;28;20225;-73
2023/11/03 11:05:20;;;;;;;2.58;0.50;;;;;;;7.41;80.88;94075.22;2079757;28;20201;-72
2023/11/03 11:06:28;;;;;;;3.40;0.70;;;;;;;7.45;81.20;94073.22;2078990;28;20201;-72
2023/11/03 11:07:34;;;;;;;3.10;0.55;;;;;;;7.54;81.42;94069.13;2079193;28;20206;-72
2023/11/03 11:08:39;;;;;;;4.05;0.70;;;;;;;7.69;81.47;94070.59;2077133;28;20201;-73
2023/11/03 11:09:47;;;;;;;1.83;0.70;;;;;;;7.72;81.11;94072.13;2073486;28;20204;-72
2023/11/03 11:10:48;;;;;;;1.67;0.60;;;;;;;7.77;81.39;94063.06;2072956;28;20206;-72
2023/11/03 11:11:50;;;;;;;2.63;0.80;;;;;;;7.82;80.89;94067.91;2072171;28;20205;-73
2023/11/03 11:12:53;;;;;;;1.42;0.60;;;;;;;7.85;81.57;94065.91;2071875;28;20223;-72
2023/11/03 11:14:19;;;;;;;2.75;0.60;;;;;;;7.49;79.79;94069.47;2076653;28;20194;-73
2023/11/03 11:15:21;;;;;;;2.10;0.70;;;;;;;7.52;80.75;94071.84;2069510;28;20201;-72
2023/11/03 11:16:24;;;;;;;2.53;0.70;;;;;;;7.51;80.10;94076.19;2070141;28;20209;-72
2023/11/03 11:17:27;;;;;;;2.15;0.70;;;;;;;7.46;80.66;94074.88;2067580;28;20233;-72
2023/11/03 11:18:33;;;;;;;2.47;0.88;;;;;;;7.53;81.00;94073.50;2074393;28;20329;-72
2023/11/03 11:19:50;;;;;;;3.67;0.90;;;;;;;7.54;81.58;94075.13;2075233;28;20219;-72
2023/11/03 11:20:53;;;;;;;6.47;0.80;;;;;;;7.63;81.35;94071.03;2071162;28;20566;-72
2023/11/03 11:21:59;;;;;;;2.30;0.70;;;;;;;7.61;81.06;94075.53;2075652;28;20197;-73
2023/11/03 11:23:05;;;;;;;1.00;0.50;;;;;;;7.38;80.08;94059.88;2074546;28;20738;-72
2023/11/03 11:24:07;;;;;;;6.60;1.00;;;;;;;7.48;81.21;94073.84;2073874;28;20202;-72
2023/11/03 11:25:10;;;;;;;3.47;0.70;;;;;;;7.57;81.65;94079.28;2071014;28;20206;-73
2023/11/03 11:26:20;;;;;;;3.60;0.70;;;;;;;7.56;81.62;94075.88;2071837;28;20253;-72
2023/11/03 11:27:38;;;;;;;6.65;1.00;;;;;;;7.81;81.52;94080.06;2075110;28;20210;-72
2023/11/03 11:28:39;;;;;;;2.85;0.50;;;;;;;7.77;80.91;94073.47;2070745;28;20653;-72
2023/11/03 11:29:42;;;;;;;2.80;0.70;;;;;;;7.73;80.44;94079.00;2072169;28;20193;-73
2023/11/03 11:30:43;;;;;;;2.47;0.80;;;;;;;7.68;80.48;94082.75;2071872;28;20198;-73
2023/11/03 11:31:46;;;;;;;5.53;1.20;;;;;;;7.76;81.23;94078.78;2075662;28;20711;-72
2023/11/03 11:32:56;;;;;;;3.90;0.70;;;;;;;7.74;81.08;94072.84;2073126;28;20233;-72
2023/11/03 11:34:06;;;;;;;3.97;0.70;;;;;;;7.75;81.17;94082.31;2070122;28;20293;-72
2023/11/03 11:35:10;;;;;;;5.55;0.65;;;;;;;7.54;81.11;94084.72;2072358;28;20530;-73
2023/11/03 11:36:21;;;;;;;2.45;0.80;;;;;;;7.57;81.68;94085.31;2073619;28;20224;-73
2023/11/03 11:37:27;;;;;;;3.75;0.70;;;;;;;7.70;82.19;94085.25;2072789;28;20659;-72
2023/11/03 11:38:30;;;;;;;3.22;0.80;;;;;;;7.75;80.85;94074.50;2073943;28;20213;-73
2023/11/03 11:39:32;;;;;;;1.42;0.60;;;;;;;7.74;79.84;94080.66;2074112;28;20239;-72
2023/11/03 11:40:34;;;;;;;3.20;0.75;;;;;;;7.78;79.99;94087.25;2071904;28;20207;-72
2023/11/03 11:41:35;;;;;;;2.58;0.75;;;;;;;7.71;79.78;94073.06;2074803;28;20595;-72
2023/11/03 11:42:44;;;;;;;1.70;0.70;;;;;;;7.72;79.62;94082.53;2071205;28;20215;-72
2023/11/03 11:43:48;;;;;;;1.85;0.68;;;;;;;7.74;79.79;94085.84;2071418;28;20208;-72
2023/11/03 11:44:52;;;;;;;1.42;0.65;;;;;;;7.78;80.33;94089.88;2072393;28;20659;-72
2023/11/03 11:45:55;;;;;;;1.58;0.60;;;;;;;7.93;80.11;94086.13;2074046;28;20209;-72
2023/11/03 11:46:58;;;;;;;2.65;0.70;;;;;;;7.78;79.95;94076.88;2075801;28;20197;-73
2023/11/03 11:48:07;;;;;;;2.05;0.70;;;;;;;7.85;80.35;94088.47;2073065;28;20375;-72
2023/11/03 11:49:13;;;;;;;2.10;0.60;;;;;;;8.05;80.56;94086.13;2075969;28;20285;-72
2023/11/03 11:50:16;;;;;;;1.10;0.60;;;;;;;8.09;80.31;94087.59;2072972;28;20200;-73
2023/11/03 11:51:19;;;;;;;3.97;1.15;;;;;;;8.13;79.56;94087.22;2070671;28;20197;-72
2023/11/03 11:52:29;;;;;;;2.15;0.70;;;;;;;8.11;79.30;94083.09;2070657;28;20198;-73
2023/11/03 11:53:31;;;;;;;1.30;0.70;;;;;;;8.01;79.67;94082.94;2070545;28;20300;-72
2023/11/03 11:54:34;;;;;;;1.40;0.60;;;;;;;7.90;79.42;94085.50;2069527;28;20203;-72
2023/11/03 11:55:35;;;;;;;2.72;0.73;;;;;;;7.84;79.82;94086.81;2070643;28;20208;-73
2023/11/03 11:56:37;;;;;;;7.28;1.08;;;;;;;7.81;80.06;94089.66;2075457;28;20225;-72
2023/11/03 11:57:42;;;;;;;4.97;0.95;;;;;;;7.77;79.90;94083.84;2070739;28;20222;-72
2023/11/03 11:58:44;;;;;;;2.38;0.80;;;;;;;7.65;79.59;94095.97;2072853;28;20267;-74
2023/11/03 11:59:50;;;;;;;4.60;0.90;;;;;;;7.44;78.94;94089.75;2071561;28;20277;-73
2023/11/03 12:00:51;;;;;;;1.65;0.80;;;;;;;7.48;79.49;94094.63;2070387;28;20205;-72
2023/11/03 12:01:53;;;;;;;6.93;0.90;;;;;;;7.50;79.88;94092.75;2073964;28;20295;-72
2023/11/03 12:02:55;;;;;;;6.13;1.10;;;;;;;7.50;79.69;94099.69;2074943;28;20220;-72
2023/11/03 12:04:01;;;;;;;4.15;1.48;;;;;;;7.56;79.39;94095.81;2075296;28;20213;-72
2023/11/03 12:05:04;;;;;;;2.83;1.00;;;;;;;7.50;79.05;94097.94;2070390;28;20194;-72
2023/11/03 12:06:06;;;;;;;1.63;0.80;;;;;;;7.63;79.45;94089.22;2070738;28;20200;-72
2023/11/03 12:07:08;;;;;;;2.63;0.90;;;;;;;7.77;79.78;94096.00;2071347;28;20199;-72
2023/11/03 12:08:09;;;;;;;2.63;0.75;;;;;;;7.78;79.48;94098.50;2073289;28;20221;-72
2023/11/03 12:09:15;;;;;;;6.97;0.80;;;;;;;7.70;79.10;94090.44;2074875;28;20190;-72
2023/11/03 12:10:17;;;;;;;2.38;0.68;;;;;;;7.88;79.60;94093.44;2072550;28;20224;-72
2023/11/03 12:11:20;;;;;;;7.65;3.35;;;;;;;7.93;78.10;94101.72;2072935;28;20301;-72
2023/11/03 12:12:22;;;;;;;8.02;3.45;;;;;;;7.83;77.56;94090.34;2072314;28;20202;-72
2023/11/03 12:13:24;;;;;;;4.95;2.67;;;;;;;7.95;77.88;94102.44;2070481;28;20622;-72
2023/11/03 12:14:26;;;;;;;2.95;1.08;;;;;;;8.10;77.76;94100.47;2074556;28;20606;-71
2023/11/03 12:15:28;;;;;;;3.72;0.85;;;;;;;8.28;76.77;94097.41;2074121;28;20204;-71
2023/11/03 12:16:30;;;;;;;2.55;0.70;;;;;;;8.31;76.46;94091.97;2072769;28;20244;-71
2023/11/03 12:17:31;;;;;;;3.78;0.88;;;;;;;8.44;76.65;94094.44;2067768;28;20219;-71
2023/11/03 12:18:39;;;;;;;2.60;0.70;;;;;;;8.23;76.80;94102.09;2068177;28;20551;-71
2023/11/03 12:19:46;;;;;;;7.07;0.95;;;;;;;7.94;76.59;94103.38;2074629;28;20201;-72
2023/11/03 12:21:02;;;;;;;4.13;0.70;;;;;;;7.71;76.82;94112.03;2075101;28;20270;-72
2023/11/03 12:22:04;;;;;;;3.45;1.02;;;;;;;7.61;77.78;94104.09;2077025;28;20186;-71
2023/11/03 12:23:05;;;;;;;3.80;1.02;;;;;;;7.59;77.76;94112.03;2074121;28;20216;-71
2023/11/03 12:24:07;;;;;;;1.90;0.82;;;;;;;7.62;78.32;94105.78;2072706;28;20561;-71
2023/11/03 12:25:10;;;;;;;3.15;0.80;;;;;;;7.61;78.41;94115.31;2073346;28;20197;-71
2023/11/03 12:26:12;;;;;;;3.08;0.70;;;;;;;7.50;78.51;94110.91;2073288;28;20195;-73
2023/11/03 12:27:16;;;;;;;2.85;0.80;;;;;;;7.49;78.53;94111.00;2073577;28;20185;-71
2023/11/03 12:28:21;;;;;;;4.05;0.98;;;;;;;7.42;79.18;94105.44;2074782;28;20222;-71
2023/11/03 12:29:28;;;;;;;1.33;0.70;;;;;;;7.38;79.91;94111.81;2072264;28;20270;-71
2023/11/03 12:30:30;;;;;;;3.53;0.70;;;;;;;7.39;79.83;94107.44;2072792;28;20190;-71
2023/11/03 12:31:31;;;;;;;4.93;0.90;;;;;;;7.49;80.33;94108.41;2073907;28;20272;-71
2023/11/03 12:32:34;;;;;;;2.00;0.77;;;;;;;7.60;80.55;94108.47;2075198;28;20196;-70
2023/11/03 12:33:36;;;;;;;2.75;0.80;;;;;;;7.49;80.09;94111.84;2071601;28;20269;-71
2023/11/03 12:34:40;;;;;;;2.10;0.88;;;;;;;7.51;80.32;94109.13;2069619;28;20258;-71
2023/11/03 12:35:43;;;;;;;4.75;0.82;;;;;;;7.47;79.96;94112.91;2066235;28;20199;-71
2023/11/03 12:36:45;;;;;;;2.65;0.85;;;;;;;7.51;78.88;94111.72;2072620;28;20224;-71
2023/11/03 12:37:47;;;;;;;5.40;1.05;;;;;;;7.51;79.69;94104.75;2075745;28;20270;-71
2023/11/03 12:38:49;;;;;;;4.70;0.75;;;;;;;7.67;80.10;94112.28;2074814;28;20275;-71
2023/11/03 12:39:52;;;;;;;2.58;0.70;;;;;;;7.78;79.79;94115.84;2069122;28;20304;-71
2023/11/03 12:41:19;;;;;;;1.90;0.77;;;;;;;7.67;79.03;94109.69;2072888;28;20235;-71
2023/11/03 12:42:25;;;;;;;3.08;0.70;;;;;;;7.49;78.60;94119.66;2074163;28;20227;-71
2023/11/03 12:43:27;;;;;;;2.25;0.80;;;;;;;7.39;78.79;94112.63;2072587;28;20214;-72
2023/11/03 12:44:31;;;;;;;2.38;0.90;;;;;;;7.34;79.92;94107.78;2072151;28;20187;-72
2023/11/03 12:45:33;;;;;;;2.83;0.75;;;;;;;7.40;79.82;94109.09;2073283;28;20193;-71
2023/11/03 12:46:45;;;;;;;7.15;1.00;;;;;;;7.43;79.96;94114.06;2071800;28;20653;-72
2023/11/03 12:47:50;;;;;;;5.20;0.90;;;;;;;7.32;79.63;94115.66;2072489;28;21384;-71
2023/11/03 12:49:11;;;;;;;2.30;0.82;;;;;;;7.39;79.63;94116.06;2073300;28;20193;-70
2023/11/03 12:50:13;;;;;;;6.47;0.80;;;;;;;7.34;79.82;94106.00;2071318;28;20197;-71
2023/11/03 12:51:15;;;;;;;3.03;0.70;;;;;;;7.38;79.68;94104.00;2073103;28;20276;-72
2023/11/03 12:52:21;;;;;;;1.65;0.68;;;;;;;7.37;79.79;94112.75;2074063;28;20197;-71
2023/11/03 12:53:23;;;;;;;2.20;0.80;;;;;;;7.35;79.27;94112.84;2068350;28;20286;-72
2023/11/03 12:54:25;;;;;;;1.55;0.63;;;;;;;7.39;79.75;94113.47;2073381;28;20190;-71
2023/11/03 12:55:29;;;;;;;2.10;0.70;;;;;;;7.29;79.88;94115.06;2073725;28;20198;-72
2023/11/03 12:56:45;;;;;;;1.45;0.68;;;;;;;7.25;79.94;94114.47;2072200;28;20198;-72
2023/11/03 12:57:47;;;;;;;2.38;0.80;;;;;;;7.18;80.29;94108.84;2072364;28;20716;-71
2023/11/03 12:58:49;;;;;;;2.25;0.60;;;;;;;7.25;81.09;94121.41;2072449;28;20707;-71
2023/11/03 12:59:50;;;;;;;4.40;0.80;;;;;;;7.29;80.82;94113.28;2069389;28;20797;-71
2023/11/03 13:00:55;;;;;;;1.75;0.60;;;;;;;7.25;81.03;94111.88;2070285;28;20288;-70
2023/11/03 13:01:57;;;;;;;1.70;0.60;;;;;;;7.25;81.26;94119.66;2072718;28;20213;-71
2023/11/03 13:02:59;;;;;;;2.78;0.73;;;;;;;7.30;81.25;94122.75;2072936;28;20228;-71
2023/11/03 13:04:00;;;;;;;2.00;0.70;;;;;;;7.37;81.71;94120.53;2073222;28;20197;-71
